UUMO 171830Z 34001MPS 5000 BR SCT/// 18/18 Q1008 R07/290050 NOSIG RMK QFE742/0989
QNH:(hPa/inHg/mmHg)1008 / 29.77 / 756
QFE:(hPa/inHg/mmHg)987 / 29.15 / 740
Temperature18
Dew Point18
Visibility5000
WeatherMist
Cloud Cover
Transition Height0 m./600 ft.
Transition LevelFL30
SQUAWK